Terminal Aerodrome Forecast
Issued by NWS

Current Version | Previous Version | Text Only | Print | Product List | Glossary On
Versions: 1 2 3 4 5 6 7 8 9 10 11 12 13 14 15 16
000
FTUS43 KILX 261209 AAA
TAFDEC
TAF AMD
KDEC 261209Z 2612/2712 19008KT P6SM VCTS SCT010CB OVC060
      TEMPO 2612/2615 2SM TSRA OVC009CB
     FM261700 20011KT P6SM BKN060
     FM262100 20011KT P6SM SCT100
     FM270200 18008KT P6SM VCSH BKN090=

USA.gov is the U.S. government's official web portal to all federal, state and local government web resources and services.